Terminal Aerodrome Forecast
Issued by NWS

Home | Current Version | Previous Version | Text Only | Print | Product List | Glossary Off
Versions: 1 2 3 4 5 6 7 8 9 10 11 12 13 14 15 16 17

188
FTUS43 KTOP 172324
TAFMHK
TAF
KMHK 172324Z 1800/1824 08007KT 6SM -DZ OVC025
     FM180300 09005KT 6SM BR VCSH OVC015
     FM180700 13005KT 5SM -SHRA VCTS OVC008CB
     FM181300 17007KT 5SM -SHRA VCTS OVC015CB
     FM181600 18010KT P6SM BKN040=

USA.gov is the U.S. government's official web portal to all federal, state and local government web resources and services.